Time;durP1;ratioP1;P1;durP2;ratioP2;P2;SDS_P1;SDS_P2;PMS_P1;PMS_P2;Temp;Humidity;BMP_temperature;BMP_pressure;BME280_temperature;BME280_humidity;BME280_pressure;Samples;Min_cycle;Max_cycle;Signal;HPM_P1;HPM_P2
2021/12/01 00:02:04;;;;;;;3.42;2.65;;;;;16.20;99840.00;;;;5096339;28;20217;-81
2021/12/01 00:04:32;;;;;;;4.85;3.60;;;;;16.20;99837.00;;;;5092495;28;20213;-79
2021/12/01 00:06:59;;;;;;;5.20;3.58;;;;;16.20;99826.00;;;;5101159;28;20191;-79
2021/12/01 00:09:26;;;;;;;4.63;3.60;;;;;16.20;99809.00;;;;5088564;28;20272;-80
2021/12/01 00:11:54;;;;;;;4.75;3.88;;;;;16.20;99803.00;;;;5092584;28;20198;-81
2021/12/01 00:14:22;;;;;;;4.65;3.78;;;;;16.20;99795.00;;;;5089074;28;20198;-81
2021/12/01 00:16:49;;;;;;;4.20;3.10;;;;;16.20;99792.00;;;;5093162;28;20206;-81
2021/12/01 00:19:17;;;;;;;3.50;3.03;;;;;16.20;99779.00;;;;5088372;28;20679;-79
2021/12/01 00:21:44;;;;;;;4.47;2.85;;;;;16.20;99761.00;;;;5093085;28;20201;-81
2021/12/01 00:24:12;;;;;;;5.25;3.15;;;;;16.20;99756.00;;;;5088049;28;20221;-80
2021/12/01 00:26:40;;;;;;;4.72;3.08;;;;;16.20;99751.00;;;;5088683;28;20190;-82
2021/12/01 00:29:07;;;;;;;3.42;3.05;;;;;16.20;99739.00;;;;5088342;28;20194;-80
2021/12/01 00:31:36;;;;;;;3.50;3.20;;;;;16.20;99745.00;;;;5091661;28;20700;-81
2021/12/01 00:34:03;;;;;;;4.35;3.03;;;;;16.20;99723.00;;;;5088523;28;20221;-80
2021/12/01 00:36:30;;;;;;;3.63;3.25;;;;;16.20;99710.00;;;;5092249;28;20200;-79
2021/12/01 00:38:58;;;;;;;4.53;3.42;;;;;16.20;99706.00;;;;5090459;28;20202;-81
2021/12/01 00:41:25;;;;;;;3.60;3.28;;;;;16.20;99706.00;;;;5087398;28;20194;-81
2021/12/01 00:43:53;;;;;;;4.13;2.97;;;;;16.20;99700.00;;;;5088991;28;20236;-80
2021/12/01 00:46:24;;;;;;;3.70;2.92;;;;;16.20;99693.00;;;;5088427;28;20217;-81
2021/12/01 00:48:52;;;;;;;4.32;3.13;;;;;16.20;99695.00;;;;5091477;28;20194;-81
2021/12/01 00:51:19;;;;;;;4.50;3.30;;;;;16.20;99680.00;;;;5100278;28;20287;-80
2021/12/01 00:53:47;;;;;;;3.70;3.13;;;;;16.20;99691.00;;;;5091507;28;20217;-82
2021/12/01 00:56:14;;;;;;;4.78;3.17;;;;;16.30;99678.00;;;;5087042;28;20189;-80
2021/12/01 00:58:41;;;;;;;3.63;3.20;;;;;16.30;99680.00;;;;5087559;28;20190;-79
2021/12/01 01:01:08;;;;;;;4.25;3.30;;;;;16.30;99662.00;;;;5091557;28;20216;-80
2021/12/01 01:03:36;;;;;;;4.28;3.38;;;;;16.30;99662.00;;;;5090226;28;20221;-81
2021/12/01 01:06:05;;;;;;;4.50;2.85;;;;;16.20;99661.00;;;;5097039;28;20212;-80
2021/12/01 01:08:32;;;;;;;3.85;3.45;;;;;16.30;99654.00;;;;5090844;28;20190;-81
2021/12/01 01:16:34;;;;;;;3.00;2.30;;;;;16.30;99634.00;;;;5106564;28;20492;-81
2021/12/01 01:19:05;;;;;;;3.42;2.50;;;;;16.30;99622.00;;;;5095118;28;20610;-81
2021/12/01 01:21:37;;;;;;;4.38;3.08;;;;;16.30;99620.00;;;;5091581;28;20194;-81
2021/12/01 01:24:06;;;;;;;3.72;3.13;;;;;16.30;99609.00;;;;5091803;28;20221;-82
2021/12/01 01:26:35;;;;;;;3.22;2.45;;;;;16.30;99615.00;;;;5090733;28;20197;-81
2021/12/01 01:29:04;;;;;;;4.05;2.60;;;;;16.30;99603.00;;;;5091278;28;20273;-80
2021/12/01 01:31:33;;;;;;;3.38;2.72;;;;;16.30;99593.00;;;;5091338;28;20190;-81
2021/12/01 01:34:00;;;;;;;3.30;2.80;;;;;16.30;99575.00;;;;5090888;28;20222;-81
2021/12/01 01:36:28;;;;;;;4.45;2.83;;;;;16.30;99585.00;;;;5095135;28;20194;-81
2021/12/01 01:38:59;;;;;;;4.15;2.90;;;;;16.30;99571.00;;;;5094682;28;20206;-80
2021/12/01 01:41:27;;;;;;;4.65;2.97;;;;;16.30;99565.00;;;;5090699;28;20198;-80
2021/12/01 01:43:55;;;;;;;4.63;2.88;;;;;16.30;99569.00;;;;5096697;28;20217;-79
2021/12/01 01:46:22;;;;;;;3.25;2.88;;;;;16.30;99567.00;;;;5099828;28;20201;-82
2021/12/01 01:48:52;;;;;;;3.13;2.30;;;;;16.30;99550.00;;;;5107638;28;20930;-81
2021/12/01 01:51:23;;;;;;;2.38;2.10;;;;;16.20;99552.00;;;;5105895;28;20186;-80
2021/12/01 01:53:53;;;;;;;3.00;2.22;;;;;16.30;99548.00;;;;5096244;28;20194;-81
2021/12/01 01:56:22;;;;;;;2.72;2.10;;;;;16.20;99550.00;;;;5094608;28;20201;-81
2021/12/01 01:58:50;;;;;;;2.10;1.50;;;;;16.30;99541.00;;;;5099493;28;20197;-80
2021/12/01 02:04:01;;;;;;;1.52;1.30;;;;;16.20;99520.00;;;;5086578;28;20233;-80
2021/12/01 02:06:28;;;;;;;1.60;1.50;;;;;16.20;99517.00;;;;5090634;28;20652;-81
2021/12/01 02:08:58;;;;;;;1.42;1.30;;;;;16.20;99523.00;;;;5090614;28;20206;-80
2021/12/01 02:11:29;;;;;;;1.40;1.10;;;;;16.20;99504.00;;;;5093064;28;20583;-80
2021/12/01 02:13:56;;;;;;;1.13;1.02;;;;;16.20;99509.00;;;;5096922;28;20205;-80
2021/12/01 02:16:24;;;;;;;1.25;1.10;;;;;16.20;99497.00;;;;5096555;28;20210;-80
2021/12/01 02:18:52;;;;;;;1.35;1.20;;;;;16.20;99489.00;;;;5089110;28;20198;-80
2021/12/01 02:21:27;;;;;;;0.80;0.80;;;;;16.10;99485.00;;;;5094655;28;20191;-81
2021/12/01 02:23:55;;;;;;;1.50;0.93;;;;;16.10;99483.00;;;;5090696;28;21370;-81
2021/12/01 02:26:24;;;;;;;0.93;0.80;;;;;16.10;99462.00;;;;5090454;28;20583;-80
2021/12/01 02:28:54;;;;;;;1.98;1.00;;;;;16.10;99462.00;;;;5102345;28;20222;-80
2021/12/01 02:31:25;;;;;;;0.70;0.70;;;;;16.10;99461.00;;;;5104289;28;20201;-80
2021/12/01 02:33:53;;;;;;;0.88;0.70;;;;;16.10;99461.00;;;;5099486;28;20285;-80
2021/12/01 02:36:22;;;;;;;0.90;0.75;;;;;16.00;99444.00;;;;5100992;28;20678;-81
2021/12/01 02:38:50;;;;;;;0.65;0.65;;;;;16.00;99440.00;;;;5100018;28;20202;-81
2021/12/01 02:41:25;;;;;;;0.90;0.70;;;;;16.00;99437.00;;;;5102132;28;20198;-80
2021/12/01 02:43:52;;;;;;;1.08;0.80;;;;;16.00;99426.00;;;;5090519;28;20221;-81
2021/12/01 02:46:20;;;;;;;1.00;0.68;;;;;16.00;99407.00;;;;5090688;28;20194;-81
2021/12/01 02:48:47;;;;;;;0.73;0.65;;;;;16.00;99409.00;;;;5100095;28;20197;-80
2021/12/01 02:51:15;;;;;;;0.93;0.77;;;;;16.00;99392.00;;;;5095348;28;20187;-80
2021/12/01 02:53:44;;;;;;;1.48;1.00;;;;;16.00;99390.00;;;;5100018;28;20229;-80
2021/12/01 02:56:12;;;;;;;0.98;0.85;;;;;16.00;99385.00;;;;5098887;28;20201;-79
2021/12/01 02:58:41;;;;;;;1.17;1.00;;;;;16.00;99375.00;;;;5090016;28;20197;-80
2021/12/01 03:01:11;;;;;;;2.33;1.20;;;;;15.90;99375.00;;;;5089514;28;20194;-80
2021/12/01 03:03:40;;;;;;;1.98;1.23;;;;;15.90;99377.00;;;;5102004;28;20229;-80
2021/12/01 03:06:09;;;;;;;1.38;1.20;;;;;15.90;99362.00;;;;5099470;28;20198;-80
2021/12/01 03:08:37;;;;;;;0.90;0.90;;;;;15.90;99368.00;;;;5100212;28;20579;-80
2021/12/01 03:11:06;;;;;;;1.10;1.00;;;;;15.90;99357.00;;;;5088759;28;20198;-81
2021/12/01 03:13:34;;;;;;;1.17;1.08;;;;;15.90;99349.00;;;;5102055;28;20190;-81
2021/12/01 03:16:01;;;;;;;0.77;0.70;;;;;15.80;99349.00;;;;5104441;28;20200;-81
2021/12/01 03:18:29;;;;;;;0.70;0.70;;;;;15.80;99345.00;;;;5093412;28;20193;-80
2021/12/01 03:20:57;;;;;;;0.70;0.70;;;;;15.80;99345.00;;;;5089387;28;20206;-81
2021/12/01 03:23:25;;;;;;;0.80;0.80;;;;;15.70;99325.00;;;;5088829;28;20198;-79
2021/12/01 03:25:53;;;;;;;1.10;0.90;;;;;15.70;99312.00;;;;5100899;28;20198;-80
2021/12/01 03:28:22;;;;;;;0.98;0.80;;;;;15.70;99300.00;;;;5094951;28;20190;-80
2021/12/01 03:30:49;;;;;;;1.17;0.93;;;;;15.70;99288.00;;;;5095769;28;20199;-81
2021/12/01 03:33:23;;;;;;;1.08;0.80;;;;;15.60;99295.00;;;;5095190;28;20190;-80
2021/12/01 03:35:52;;;;;;;0.90;0.88;;;;;15.60;99284.00;;;;5102473;28;20205;-80
2021/12/01 03:38:22;;;;;;;1.10;1.00;;;;;15.60;99279.00;;;;5099634;28;20648;-80
2021/12/01 03:40:51;;;;;;;1.20;0.90;;;;;15.60;99277.00;;;;5089321;28;20201;-79
2021/12/01 03:43:19;;;;;;;0.93;0.82;;;;;15.60;99260.00;;;;5089154;28;20752;-80
2021/12/01 03:45:47;;;;;;;1.17;1.02;;;;;15.50;99259.00;;;;5092766;28;20225;-82
2021/12/01 03:48:15;;;;;;;1.00;0.93;;;;;15.50;99259.00;;;;5089000;28;20190;-80
2021/12/01 03:50:48;;;;;;;1.10;1.00;;;;;15.50;99242.00;;;;5089274;28;20677;-81
2021/12/01 03:53:16;;;;;;;1.50;1.08;;;;;15.50;99226.00;;;;5094003;28;20590;-81
2021/12/01 03:55:43;;;;;;;0.75;0.75;;;;;15.50;99232.00;;;;5091883;28;20224;-81
2021/12/01 03:58:11;;;;;;;1.30;1.00;;;;;15.50;99219.00;;;;5089627;28;20221;-82
2021/12/01 04:00:38;;;;;;;0.93;0.80;;;;;15.50;99211.00;;;;5088964;28;20194;-81
2021/12/01 04:03:07;;;;;;;0.70;0.70;;;;;15.50;99200.00;;;;5093029;28;20195;-82
2021/12/01 04:05:35;;;;;;;0.73;0.73;;;;;15.50;99178.00;;;;5096760;28;20262;-82
2021/12/01 04:08:03;;;;;;;1.08;0.82;;;;;15.40;99190.00;;;;5098776;28;20194;-81
2021/12/01 04:10:31;;;;;;;1.08;0.90;;;;;15.40;99173.00;;;;5096065;28;20212;-83
2021/12/01 04:12:58;;;;;;;1.17;0.90;;;;;15.40;99168.00;;;;5089798;28;20229;-81
2021/12/01 04:15:26;;;;;;;1.00;1.00;;;;;15.40;99171.00;;;;5093797;28;20262;-81
2021/12/01 04:17:54;;;;;;;0.80;0.80;;;;;15.40;99153.00;;;;5097448;28;20477;-80
2021/12/01 04:20:23;;;;;;;1.27;1.17;;;;;15.40;99153.00;;;;5089731;28;20222;-80
2021/12/01 04:22:50;;;;;;;1.08;1.00;;;;;15.40;99141.00;;;;5099327;28;20186;-81
2021/12/01 04:25:18;;;;;;;1.17;1.08;;;;;15.40;99132.00;;;;5096844;28;20631;-81
2021/12/01 04:27:46;;;;;;;1.42;1.33;;;;;15.40;99128.00;;;;5103282;28;20194;-82
2021/12/01 04:30:16;;;;;;;1.90;1.80;;;;;15.30;99123.00;;;;5090446;28;20193;-80
2021/12/01 04:32:43;;;;;;;2.22;2.03;;;;;15.30;99124.00;;;;5088671;28;20205;-82
2021/12/01 04:35:12;;;;;;;1.90;1.80;;;;;15.30;99123.00;;;;5088613;28;20226;-82
2021/12/01 04:37:41;;;;;;;2.45;2.25;;;;;15.30;99123.00;;;;5089039;28;20244;-81
2021/12/01 04:40:09;;;;;;;2.00;1.80;;;;;15.20;99115.00;;;;5094509;28;20209;-82
2021/12/01 04:42:38;;;;;;;2.20;2.00;;;;;15.20;99109.00;;;;5093117;28;20187;-82
2021/12/01 04:45:13;;;;;;;1.40;1.30;;;;;15.20;99086.00;;;;5093137;28;21007;-82
2021/12/01 04:47:42;;;;;;;1.45;1.35;;;;;15.20;99088.00;;;;5098253;28;20190;-81
2021/12/01 04:50:11;;;;;;;1.05;0.95;;;;;15.10;99080.00;;;;5102412;28;20197;-81
2021/12/01 04:52:40;;;;;;;1.50;1.10;;;;;15.10;99079.00;;;;5094576;28;20229;-82
2021/12/01 04:55:08;;;;;;;1.48;1.23;;;;;15.10;99078.00;;;;5101253;28;20201;-82
2021/12/01 04:57:38;;;;;;;1.00;0.90;;;;;15.10;99084.00;;;;5092114;28;20209;-81
2021/12/01 05:00:07;;;;;;;1.35;0.98;;;;;15.00;99070.00;;;;5092355;28;20202;-82
2021/12/01 05:02:35;;;;;;;1.55;1.00;;;;;15.00;99058.00;;;;5092662;28;20205;-84
2021/12/01 05:05:02;;;;;;;0.90;0.90;;;;;15.00;99058.00;;;;5091496;28;20217;-83
2021/12/01 05:07:29;;;;;;;0.95;0.75;;;;;15.00;99080.00;;;;5104582;28;20198;-83
2021/12/01 05:09:58;;;;;;;1.00;0.90;;;;;14.90;99048.00;;;;5107204;28;20690;-83
2021/12/01 05:12:26;;;;;;;1.30;1.20;;;;;14.90;99048.00;;;;5092694;28;20197;-82
2021/12/01 05:14:53;;;;;;;0.98;0.90;;;;;14.90;99031.00;;;;5091919;28;20194;-82
2021/12/01 05:17:20;;;;;;;1.00;0.70;;;;;14.80;99031.00;;;;5102962;28;20202;-83
2021/12/01 05:19:48;;;;;;;0.90;0.75;;;;;14.80;99028.00;;;;5097342;28;20198;-82
2021/12/01 05:22:16;;;;;;;1.10;1.00;;;;;14.80;99023.00;;;;5090778;28;20207;-84
2021/12/01 05:24:43;;;;;;;0.95;0.77;;;;;14.80;99015.00;;;;5091404;28;20221;-83
2021/12/01 05:27:11;;;;;;;0.73;0.73;;;;;14.70;99006.00;;;;5092024;28;20198;-83
2021/12/01 05:29:39;;;;;;;1.10;0.90;;;;;14.80;98998.00;;;;5093548;28;20201;-82
2021/12/01 05:32:07;;;;;;;0.70;0.70;;;;;14.70;99001.00;;;;5092200;28;20201;-82
2021/12/01 05:34:34;;;;;;;1.00;0.90;;;;;14.70;99021.00;;;;5098186;28;20217;-83
2021/12/01 05:37:01;;;;;;;1.00;0.90;;;;;14.70;99003.00;;;;5096378;28;20205;-83
2021/12/01 05:39:29;;;;;;;0.98;0.90;;;;;14.70;98993.00;;;;5091472;28;20732;-83
2021/12/01 05:41:58;;;;;;;1.25;0.90;;;;;14.70;98982.00;;;;5090123;28;20206;-82
2021/12/01 05:44:26;;;;;;;0.95;0.85;;;;;14.70;98976.00;;;;5091102;28;20271;-82
2021/12/01 05:46:54;;;;;;;1.10;0.98;;;;;14.70;98976.00;;;;5093407;28;20221;-82
2021/12/01 05:49:21;;;;;;;1.88;0.95;;;;;14.70;98982.00;;;;5090480;28;20201;-82
2021/12/01 05:51:48;;;;;;;1.40;1.20;;;;;14.70;98969.00;;;;5099739;28;20687;-83
2021/12/01 05:54:15;;;;;;;1.25;0.85;;;;;14.70;98955.00;;;;5091092;28;20205;-83
2021/12/01 05:56:43;;;;;;;1.98;1.10;;;;;14.70;98959.00;;;;5091168;28;20672;-83
2021/12/01 05:59:10;;;;;;;1.27;1.17;;;;;14.70;98962.00;;;;5091179;28;20205;-83
2021/12/01 06:01:39;;;;;;;1.50;1.35;;;;;14.70;98958.00;;;;5092084;28;20699;-83
2021/12/01 06:04:06;;;;;;;1.55;1.15;;;;;14.70;98958.00;;;;5094541;28;20198;-82
2021/12/01 06:06:33;;;;;;;2.10;1.80;;;;;14.70;98941.00;;;;5090411;28;20230;-83
2021/12/01 06:09:01;;;;;;;2.33;1.63;;;;;14.70;98934.00;;;;5091600;28;20201;-83
2021/12/01 06:11:28;;;;;;;1.70;1.33;;;;;14.70;98934.00;;;;5099576;28;20202;-82
2021/12/01 06:13:56;;;;;;;2.50;1.50;;;;;14.70;98922.00;;;;5090472;28;20209;-83
2021/12/01 06:16:24;;;;;;;1.92;1.80;;;;;14.70;98923.00;;;;5095020;28;20202;-83
2021/12/01 06:18:53;;;;;;;1.77;1.67;;;;;14.70;98919.00;;;;5090280;28;20202;-82
2021/12/01 06:21:20;;;;;;;2.08;1.88;;;;;14.70;98899.00;;;;5089970;28;20664;-82
2021/12/01 06:23:47;;;;;;;1.25;1.15;;;;;14.60;98900.00;;;;5094165;28;20194;-83
2021/12/01 06:26:15;;;;;;;1.50;1.40;;;;;14.60;98893.00;;;;5091560;28;20229;-84
2021/12/01 06:28:42;;;;;;;3.05;1.98;;;;;14.60;98893.00;;;;5110138;28;20204;-85
2021/12/01 06:31:10;;;;;;;1.90;1.70;;;;;14.70;98880.00;;;;5091820;28;20526;-83
2021/12/01 06:33:37;;;;;;;1.50;1.33;;;;;14.70;98894.00;;;;5090104;28;20194;-83
2021/12/01 06:36:06;;;;;;;1.70;1.60;;;;;14.70;98888.00;;;;5091221;28;20218;-83
2021/12/01 06:38:33;;;;;;;1.63;1.50;;;;;14.70;98903.00;;;;5094318;28;20197;-84
2021/12/01 06:41:01;;;;;;;1.67;1.58;;;;;14.70;98896.00;;;;5093812;28;20236;-82
2021/12/01 06:43:28;;;;;;;1.60;1.50;;;;;14.70;98895.00;;;;5101369;28;20194;-84
2021/12/01 06:45:56;;;;;;;1.73;1.63;;;;;14.70;98883.00;;;;5107461;28;20228;-84
2021/12/01 06:48:23;;;;;;;2.17;1.70;;;;;14.70;98882.00;;;;5089346;28;20221;-83
2021/12/01 06:50:50;;;;;;;1.70;1.60;;;;;14.70;98887.00;;;;5110944;28;20197;-84
2021/12/01 06:53:19;;;;;;;1.98;1.88;;;;;14.70;98869.00;;;;5100214;28;20691;-84
2021/12/01 06:55:47;;;;;;;2.15;1.50;;;;;14.80;98874.00;;;;5103034;28;20201;-82
2021/12/01 06:58:14;;;;;;;2.40;1.73;;;;;14.80;98868.00;;;;5098837;28;20208;-82
2021/12/01 07:00:42;;;;;;;1.65;1.50;;;;;14.80;98861.00;;;;5097998;28;20205;-82
2021/12/01 07:03:09;;;;;;;1.63;1.52;;;;;14.80;98856.00;;;;5093482;28;20198;-82
2021/12/01 07:05:36;;;;;;;1.50;1.40;;;;;14.80;98851.00;;;;5091447;28;20221;-83
2021/12/01 07:08:04;;;;;;;1.67;1.58;;;;;14.80;98854.00;;;;5109388;27;20203;-84
2021/12/01 07:10:33;;;;;;;2.58;2.00;;;;;14.80;98859.00;;;;5095066;28;20210;-84
2021/12/01 07:13:00;;;;;;;1.60;1.50;;;;;14.80;98860.00;;;;5102580;27;20220;-83
2021/12/01 07:15:27;;;;;;;1.67;1.48;;;;;14.90;98848.00;;;;5095012;28;20210;-83
2021/12/01 07:17:54;;;;;;;2.00;1.80;;;;;14.90;98858.00;;;;5089615;28;21020;-81
2021/12/01 07:20:22;;;;;;;1.63;1.40;;;;;14.90;98860.00;;;;5089239;28;20236;-82
2021/12/01 07:22:49;;;;;;;1.25;1.15;;;;;14.90;98842.00;;;;5089769;28;20205;-83
2021/12/01 07:25:17;;;;;;;1.50;1.30;;;;;14.90;98849.00;;;;5089550;28;20301;-82
2021/12/01 07:27:46;;;;;;;1.40;1.30;;;;;14.90;98827.00;;;;5090294;28;20208;-81
2021/12/01 07:30:13;;;;;;;2.88;1.42;;;;;14.90;98835.00;;;;5089101;28;20206;-81
2021/12/01 07:32:41;;;;;;;1.75;1.23;;;;;14.90;98850.00;;;;5097421;28;20186;-82
2021/12/01 07:35:09;;;;;;;2.75;1.60;;;;;15.00;98831.00;;;;5099433;28;20278;-83
2021/12/01 07:37:36;;;;;;;1.95;1.48;;;;;15.00;98831.00;;;;5106027;28;20194;-83
2021/12/01 07:40:05;;;;;;;1.98;1.20;;;;;15.00;98829.00;;;;5106299;28;20194;-82
2021/12/01 07:42:32;;;;;;;1.73;1.48;;;;;15.00;98823.00;;;;5089474;28;20198;-82
2021/12/01 07:45:00;;;;;;;1.65;1.52;;;;;15.00;98803.00;;;;5089558;28;20205;-83
2021/12/01 07:47:28;;;;;;;2.33;1.90;;;;;15.00;98812.00;;;;5088509;28;20190;-82
2021/12/01 07:49:55;;;;;;;1.85;1.70;;;;;15.10;98805.00;;;;5105862;28;20224;-83
2021/12/01 07:52:22;;;;;;;2.97;2.05;;;;;15.10;98798.00;;;;5101831;28;20232;-83
2021/12/01 07:54:49;;;;;;;1.70;1.58;;;;;15.10;98785.00;;;;5097344;28;20224;-83
2021/12/01 07:57:17;;;;;;;1.67;1.40;;;;;15.10;98791.00;;;;5088460;28;20194;-83
2021/12/01 07:59:44;;;;;;;2.72;1.75;;;;;15.10;98783.00;;;;5090088;28;20194;-82
2021/12/01 08:02:13;;;;;;;3.30;1.90;;;;;15.10;98776.00;;;;5098202;28;20193;-83
2021/12/01 08:04:40;;;;;;;2.78;1.67;;;;;15.20;98784.00;;;;5105922;28;20560;-82
2021/12/01 08:07:07;;;;;;;2.17;1.98;;;;;15.20;98767.00;;;;5088162;28;20230;-84
2021/12/01 08:09:35;;;;;;;1.85;1.45;;;;;15.20;98759.00;;;;5097839;28;20648;-84
2021/12/01 08:12:02;;;;;;;3.67;1.48;;;;;15.20;98754.00;;;;5096364;28;20205;-89
2021/12/01 08:14:30;;;;;;;4.07;1.92;;;;;15.30;98755.00;;;;5097066;28;20214;-85
2021/12/01 08:16:57;;;;;;;2.13;1.60;;;;;15.30;98745.00;;;;5094858;28;20205;-84
2021/12/01 08:19:26;;;;;;;2.30;1.80;;;;;15.30;98755.00;;;;5096027;28;20569;-89
2021/12/01 08:21:53;;;;;;;1.95;1.35;;;;;15.30;98756.00;;;;5089404;28;20206;-88
2021/12/01 08:24:21;;;;;;;1.60;1.33;;;;;15.30;98770.00;;;;5089608;28;20190;-86
2021/12/01 08:26:49;;;;;;;2.75;1.35;;;;;15.40;98781.00;;;;5093714;28;20229;-87
2021/12/01 08:29:17;;;;;;;2.72;1.17;;;;;15.40;98776.00;;;;5091630;28;20201;-84
2021/12/01 08:31:44;;;;;;;2.92;1.52;;;;;15.40;98786.00;;;;5087764;28;20583;-82
2021/12/01 08:34:13;;;;;;;5.00;1.33;;;;;15.40;98781.00;;;;5088161;28;20226;-83
2021/12/01 08:36:41;;;;;;;2.47;1.20;;;;;15.40;98791.00;;;;5099105;28;20194;-83
2021/12/01 08:39:09;;;;;;;6.10;1.90;;;;;15.40;98784.00;;;;5090066;28;20671;-84
2021/12/01 08:41:36;;;;;;;2.38;1.70;;;;;15.40;98806.00;;;;5100807;28;20193;-83
2021/12/01 08:44:03;;;;;;;1.80;0.70;;;;;15.40;98816.00;;;;5092786;28;20209;-80
2021/12/01 08:46:31;;;;;;;5.30;1.35;;;;;15.40;98822.00;;;;5098662;28;20213;-81
2021/12/01 08:49:00;;;;;;;1.83;0.70;;;;;15.40;98821.00;;;;5096218;28;20198;-82
2021/12/01 08:51:27;;;;;;;1.75;0.50;;;;;15.30;98816.00;;;;5099862;28;20205;-83
2021/12/01 08:53:56;;;;;;;2.88;0.70;;;;;15.30;98810.00;;;;5089624;28;20230;-83
2021/12/01 08:56:23;;;;;;;2.60;0.40;;;;;15.30;98818.00;;;;5088314;28;20213;-83
2021/12/01 08:58:51;;;;;;;1.60;0.77;;;;;15.20;98825.00;;;;5088544;28;20552;-83
2021/12/01 09:01:18;;;;;;;1.48;0.60;;;;;15.20;98825.00;;;;5095904;28;20198;-83
2021/12/01 09:03:45;;;;;;;3.38;0.40;;;;;15.20;98840.00;;;;5088955;28;20920;-83
2021/12/01 09:06:12;;;;;;;1.63;0.65;;;;;15.20;98830.00;;;;5088329;28;20225;-83
2021/12/01 09:08:40;;;;;;;2.42;0.40;;;;;15.20;98851.00;;;;5097342;28;20205;-85
2021/12/01 09:11:09;;;;;;;2.03;0.38;;;;;15.10;98847.00;;;;5096394;28;20225;-85
2021/12/01 09:13:37;;;;;;;2.08;0.40;;;;;15.20;98849.00;;;;5095144;28;20202;-84
2021/12/01 09:16:04;;;;;;;3.38;0.43;;;;;15.20;98857.00;;;;5093597;28;20205;-84
2021/12/01 09:18:33;;;;;;;1.67;0.40;;;;;15.10;98838.00;;;;5087375;28;20198;-82
2021/12/01 09:21:02;;;;;;;2.50;0.38;;;;;15.10;98839.00;;;;5088162;28;20946;-83
2021/12/01 09:23:29;;;;;;;2.92;0.43;;;;;15.10;98847.00;;;;5093270;28;20651;-84
2021/12/01 09:25:57;;;;;;;2.83;0.30;;;;;15.10;98846.00;;;;5091773;28;20221;-85
2021/12/01 09:28:26;;;;;;;1.40;0.25;;;;;15.10;98853.00;;;;5096131;28;20201;-85
2021/12/01 09:30:56;;;;;;;0.73;0.13;;;;;15.10;98846.00;;;;5099728;28;20209;-83
2021/12/01 09:33:23;;;;;;;1.95;0.80;;;;;15.10;98848.00;;;;5101917;28;20198;-84
2021/12/01 09:35:52;;;;;;;1.10;0.30;;;;;15.10;98852.00;;;;5101249;28;20573;-83
2021/12/01 09:38:20;;;;;;;2.13;0.57;;;;;15.10;98854.00;;;;5109229;28;20254;-84
2021/12/01 09:40:51;;;;;;;2.63;0.50;;;;;15.20;98863.00;;;;5100126;28;20567;-84
2021/12/01 09:43:25;;;;;;;1.75;0.30;;;;;15.20;98859.00;;;;5094262;28;20285;-84
2021/12/01 09:45:54;;;;;;;0.70;0.40;;;;;15.20;98858.00;;;;5101054;28;20334;-82
2021/12/01 09:48:21;;;;;;;4.18;0.40;;;;;15.20;98858.00;;;;5103374;28;20202;-84
2021/12/01 09:50:49;;;;;;;2.28;0.63;;;;;15.20;98858.00;;;;5090976;28;20206;-83
2021/12/01 09:53:16;;;;;;;6.38;0.73;;;;;15.20;98862.00;;;;5097734;28;20592;-83
2021/12/01 09:55:44;;;;;;;2.00;0.45;;;;;15.30;98856.00;;;;5097940;28;20206;-84
2021/12/01 09:58:13;;;;;;;1.48;0.50;;;;;15.20;98864.00;;;;5095458;28;20210;-84
2021/12/01 10:00:43;;;;;;;1.45;0.35;;;;;15.20;98876.00;;;;5094976;28;20198;-85
2021/12/01 10:03:12;;;;;;;1.48;0.40;;;;;15.10;98864.00;;;;5096959;28;20614;-84
2021/12/01 10:05:59;;;;;;;1.50;0.30;;;;;15.10;98864.00;;;;5100019;28;20682;-84
2021/12/01 10:08:28;;;;;;;2.95;0.35;;;;;15.10;98871.00;;;;5097449;28;20208;-84
2021/12/01 10:10:57;;;;;;;1.05;0.30;;;;;15.10;98872.00;;;;5091928;28;20201;-86
2021/12/01 10:13:27;;;;;;;1.85;0.25;;;;;15.10;98879.00;;;;5092772;28;20201;-84
2021/12/01 10:15:56;;;;;;;0.50;0.10;;;;;15.10;98874.00;;;;5093457;28;20198;-84
2021/12/01 10:18:25;;;;;;;1.08;0.30;;;;;15.10;98879.00;;;;5102063;28;20201;-84
2021/12/01 10:21:04;;;;;;;0.52;0.10;;;;;15.00;98870.00;;;;5101090;28;20199;-85
2021/12/01 10:23:32;;;;;;;1.52;0.50;;;;;15.00;98879.00;;;;5095775;28;20194;-83
2021/12/01 10:26:15;;;;;;;2.50;0.52;;;;;15.00;98870.00;;;;5095921;28;20213;-84
2021/12/01 10:28:44;;;;;;;1.60;0.17;;;;;15.00;98878.00;;;;5089724;28;20206;-85
2021/12/01 10:31:13;;;;;;;2.47;0.70;;;;;15.10;98875.00;;;;5089415;28;20198;-82
2021/12/01 10:33:43;;;;;;;1.05;0.32;;;;;15.00;98870.00;;;;5099712;28;20316;-85
2021/12/01 10:36:11;;;;;;;13.88;0.60;;;;;15.10;98866.00;;;;5098235;28;20220;-84
2021/12/01 10:38:43;;;;;;;2.03;0.30;;;;;15.00;98858.00;;;;5090445;28;20202;-84
2021/12/01 10:41:14;;;;;;;4.38;0.50;;;;;15.10;98870.00;;;;5107579;28;20212;-85
2021/12/01 10:43:47;;;;;;;1.58;0.40;;;;;15.00;98853.00;;;;5089181;28;20194;-85
2021/12/01 10:46:16;;;;;;;2.83;0.63;;;;;15.00;98850.00;;;;5101176;28;20274;-85
2021/12/01 10:48:59;;;;;;;1.00;0.25;;;;;15.10;98854.00;;;;5091664;28;20229;-85
2021/12/01 10:51:35;;;;;;;1.67;0.43;;;;;15.10;98855.00;;;;5089054;28;20206;-85
2021/12/01 10:54:02;;;;;;;4.45;0.47;;;;;15.10;98854.00;;;;5089066;28;20694;-85
2021/12/01 10:56:29;;;;;;;3.00;0.60;;;;;15.20;98843.00;;;;5091525;28;20206;-83
2021/12/01 10:59:09;;;;;;;2.60;0.50;;;;;15.20;98861.00;;;;5095340;28;20193;-85
2021/12/01 11:01:37;;;;;;;1.88;0.20;;;;;15.20;98850.00;;;;5087763;28;20197;-85
2021/12/01 11:04:07;;;;;;;4.88;0.90;;;;;15.20;98850.00;;;;5088649;28;20202;-84
2021/12/01 11:06:40;;;;;;;1.30;0.40;;;;;15.20;98853.00;;;;5089519;28;20222;-83
2021/12/01 11:09:08;;;;;;;1.42;0.55;;;;;15.30;98855.00;;;;5109434;28;20206;-82
2021/12/01 11:11:42;;;;;;;3.97;0.95;;;;;15.30;98846.00;;;;5100127;28;20198;-80
2021/12/01 11:14:11;;;;;;;1.50;0.40;;;;;15.40;98847.00;;;;5106534;28;20201;-82
2021/12/01 11:16:40;;;;;;;1.60;0.65;;;;;15.50;98856.00;;;;5100777;28;20195;-83
2021/12/01 11:19:09;;;;;;;2.53;0.60;;;;;15.50;98860.00;;;;5094397;28;20231;-83
2021/12/01 11:21:38;;;;;;;2.30;0.38;;;;;15.50;98851.00;;;;5090903;28;20195;-82
2021/12/01 11:24:08;;;;;;;2.08;0.38;;;;;15.60;98855.00;;;;5095042;28;20229;-84
2021/12/01 11:26:36;;;;;;;4.18;0.43;;;;;15.60;98847.00;;;;5091762;28;20313;-85
2021/12/01 11:29:06;;;;;;;1.58;0.40;;;;;15.50;98855.00;;;;5101618;28;20197;-85
2021/12/01 11:31:36;;;;;;;2.08;0.88;;;;;15.50;98856.00;;;;5087374;28;20198;-87
2021/12/01 11:34:06;;;;;;;3.25;0.50;;;;;15.50;98853.00;;;;5093265;28;20667;-83
2021/12/01 11:36:38;;;;;;;2.10;0.60;;;;;15.50;98851.00;;;;5090257;28;20497;-87
2021/12/01 11:39:09;;;;;;;6.53;0.73;;;;;15.50;98853.00;;;;5088266;28;20194;-84
2021/12/01 11:41:41;;;;;;;3.90;0.60;;;;;15.50;98859.00;;;;5091502;28;20198;-84
2021/12/01 11:44:09;;;;;;;2.90;0.68;;;;;15.50;98862.00;;;;5101730;28;20199;-87
2021/12/01 11:46:37;;;;;;;3.90;0.60;;;;;15.50;98847.00;;;;5100661;28;20603;-86
2021/12/01 11:49:08;;;;;;;1.95;0.80;;;;;15.50;98850.00;;;;5098751;28;20205;-86
2021/12/01 11:51:44;;;;;;;3.58;0.30;;;;;15.40;98841.00;;;;5098581;28;20249;-87
2021/12/01 11:54:16;;;;;;;2.78;0.73;;;;;15.40;98854.00;;;;5093022;28;20202;-87
2021/12/01 11:56:52;;;;;;;16.50;1.25;;;;;15.30;98845.00;;;;5093151;28;20197;-88
2021/12/01 11:59:22;;;;;;;5.45;0.80;;;;;15.40;98837.00;;;;5111741;28;20197;-88
2021/12/01 12:01:53;;;;;;;2.33;0.30;;;;;15.40;98844.00;;;;5091222;28;20194;-88
2021/12/01 12:04:51;;;;;;;4.10;0.60;;;;;15.30;98842.00;;;;5105038;28;20198;-89
2021/12/01 12:07:32;;;;;;;3.47;0.38;;;;;15.30;98832.00;;;;5107090;28;20253;-89
2021/12/01 12:10:15;;;;;;;1.95;0.60;;;;;15.30;98843.00;;;;5098582;28;20206;-89
2021/12/01 12:12:57;;;;;;;5.63;0.93;;;;;15.30;98836.00;;;;5090622;28;20228;-86
2021/12/01 12:15:54;;;;;;;2.30;0.40;;;;;15.30;98842.00;;;;5096081;28;20204;-86
2021/12/01 12:18:48;;;;;;;3.00;0.43;;;;;15.20;98839.00;;;;5091128;28;20197;-87
2021/12/01 12:21:17;;;;;;;3.15;0.30;;;;;15.40;98842.00;;;;5095257;28;20216;-85
2021/12/01 12:23:48;;;;;;;2.25;0.50;;;;;15.30;98836.00;;;;5101308;28;20288;-84
2021/12/01 12:26:33;;;;;;;1.38;0.30;;;;;15.30;98840.00;;;;5100895;28;20274;-84
2021/12/01 12:29:05;;;;;;;2.13;0.50;;;;;15.40;98834.00;;;;5098364;28;20214;-85
2021/12/01 12:31:32;;;;;;;3.20;0.43;;;;;15.40;98826.00;;;;5087975;28;20198;-85
2021/12/01 12:34:03;;;;;;;2.90;0.47;;;;;15.40;98824.00;;;;5098798;28;20198;-84
2021/12/01 12:36:39;;;;;;;1.83;0.60;;;;;15.30;98825.00;;;;5087757;28;20202;-86